Terminal Aerodrome Forecast
Issued by NWS Sterling, VA

Home | Current Version | Previous Version | Text Only | Print | Product List | Glossary On
Versions: 1 2 3 4 5 6 7 8 9 10 11 12 13 14 15 16 17 18 19 20 21 22 23 24 25 26
000
FTUS41 KLWX 291445 AAA
TAFDCA
TAF AMD
KDCA 291445Z 2915/3012 07007KT P6SM OVC018
     FM291900 13008KT P6SM VCTS BKN050CB
     FM300100 15007KT P6SM BKN250=

USA.gov is the U.S. government's official web portal to all federal, state and local government web resources and services.